Flight Track Log - Related Links

Times and Time Zones

All times are in EDT time to prevent confusion due to time zone crossing. See the SKW6345 flight status page for this flight to view local times or setup timezone preferences in your user account.

Time Position Orientation Groundspeed Altitude Reporting Facility
EDT Latitude Longitude Course Direction KTS MPH feet Rate Location/Type
Thu 08:40:08 PM 33.9167 -118.4500 139° Southeast 176 203 2,400  Level Southern California TRACON
Thu 08:41:08 PM 33.8667 -118.4500 180° South 189 217 3,700 1,350 Climbing Southern California TRACON
Thu 08:42:08 PM 33.8167 -118.4667 195° South 194 223 5,100 1,550 Climbing Southern California TRACON
Thu 08:43:08 PM 33.7500 -118.4333 157° South 194 223 6,800 1,438 Climbing Southern California TRACON
Thu 08:44:09 PM 33.7167 -118.4000 140° Southeast 197 227 8,000 1,041 Climbing Southern California TRACON
Thu 08:45:00 PM 33.7103 -118.1704 139° Southeast  Level Estimated
Thu 08:45:09 PM 33.6833 -118.3500 129° Southeast 210 242 8,900  Level Southern California TRACON
Thu 08:46:09 PM 33.6333 -118.2833 132° Southeast 245 282 9,000 50 Climbing Southern California TRACON
Thu 08:47:09 PM 33.6000 -118.2167 121° Southeast 260 299 9,000 550 Level Southern California TRACON
Thu 08:48:09 PM 33.5667 -118.1500 121° Southeast 244 281 10,100 972 Climbing Southern California TRACON
Thu 08:49:31 PM 33.5228 -118.0553 119° Southeast 224 258 11,300 833 Climbing Los Angeles Center
Thu 08:50:33 PM 33.4917 -117.9897 120° Southeast 226 260 12,100 726 Climbing Los Angeles Center
Thu 08:51:35 PM 33.4561 -117.9297 125° Southeast 222 255 12,800 435 Climbing Los Angeles Center
Thu 08:52:37 PM 33.4158 -117.8692 129° Southeast 229 264 13,000 126 Climbing Los Angeles Center
Thu 08:53:10 PM 33.3833 -117.8167 127° Southeast 251 289 13,000  Level Southern California TRACON
Thu 08:54:16 PM 33.3333 -117.7500 132° Southeast 258 297 13,000  Level Southern California TRACON
Thu 08:55:16 PM 33.3000 -117.6833 121° Southeast 262 302 13,000  Level Southern California TRACON
Thu 08:56:16 PM 33.2500 -117.6000 126° Southeast 264 304 13,000  Level Southern California TRACON
Thu 08:57:17 PM 33.2167 -117.5333 121° Southeast 264 304 13,000  Level Southern California TRACON
Thu 08:58:17 PM 33.1500 -117.5000 157° South 258 297 13,000  Level Southern California TRACON
Thu 08:58:49 PM 33.1244 -117.4742 140° Southeast 256 295 13,000 -702 Level Los Angeles Center
Thu 08:59:51 PM 33.0617 -117.4275 148° Southeast 261 300 11,900 -1,065 Descending Los Angeles Center
Thu 09:00:53 PM 32.9942 -117.3789 149° Southeast 278 320 10,800 -1,500 Descending Los Angeles Center
Thu 09:01:55 PM 32.9139 -117.3069 143° Southeast 302 348 8,800 -1,790 Descending Los Angeles Center
Thu 09:02:57 PM 32.8589 -117.2242 128° Southeast 319 367 7,100 -1,161 Descending Los Angeles Center
Thu 09:03:59 PM 32.8058 -117.1531 132° Southeast 297 342 6,400 -871 Descending Los Angeles Center
Thu 09:05:01 PM 32.7561 -117.0747 127° Southeast 273 314 5,300 -774 Descending Los Angeles Center
Thu 09:06:03 PM 32.7314 -116.9967 111° Southeast 256 295 4,800 -774 Descending Los Angeles Center
Thu 09:07:05 PM 32.6861 -117.0033 187° South 210 242 3,700 -884 Descending Los Angeles Center
Thu 09:08:12 PM 32.7000 -117.0667 285° West 160 184 2,900 -850 Descending Southern California TRACON
Thu 09:09:12 PM 32.7167 -117.1167 292° West 148 170 1,900 -1,140 Descending Southern California TRACON
Thu 09:10:13 PM 32.7333 -117.1500 301° West 131 151 600 -716 Descending Southern California TRACON
Thu 09:11:26 PM 32.7378 -117.2078 275° West 134 154 300 -247 Descending Los Angeles Center

Login

Don't have an account? Register now (free) for customized features, flight alerts, and more!